createdAt,value
2018-09-15T00:00:45.117Z,18.40
2018-09-15T00:03:13.424Z,15.93
2018-09-15T00:05:41.694Z,15.17
2018-09-15T00:08:09.933Z,13.23
2018-09-15T00:10:38.432Z,15.47
2018-09-15T00:13:06.704Z,13.10
2018-09-15T00:15:34.912Z,13.97
2018-09-15T00:18:05.552Z,14.00
2018-09-15T00:20:33.857Z,16.40
2018-09-15T00:23:02.102Z,18.67
2018-09-15T00:25:30.343Z,15.10
2018-09-15T00:27:58.800Z,15.80
2018-09-15T00:30:26.994Z,16.43
2018-09-15T00:32:55.150Z,17.30
2018-09-15T00:35:23.330Z,18.13
2018-09-15T00:37:51.717Z,15.80
2018-09-15T00:40:19.953Z,21.53
2018-09-15T00:42:48.170Z,19.33
2018-09-15T00:45:16.406Z,19.57
2018-09-15T00:47:44.775Z,17.13
2018-09-15T00:50:12.993Z,16.83
2018-09-15T00:52:41.320Z,16.03
2018-09-15T00:55:09.505Z,15.20
2018-09-15T00:57:37.667Z,14.23
2018-09-15T01:00:06.434Z,14.27
2018-09-15T01:02:34.659Z,13.90
2018-09-15T01:05:02.813Z,16.70
2018-09-15T01:07:30.940Z,14.53
2018-09-15T01:09:59.122Z,14.37
2018-09-15T01:12:27.337Z,21.40
2018-09-15T01:14:55.531Z,17.60
2018-09-15T01:17:23.734Z,18.50
2018-09-15T01:19:51.952Z,19.20
2018-09-15T01:22:20.150Z,15.97
2018-09-15T01:24:48.264Z,17.33
2018-09-15T01:27:16.416Z,19.10
2018-09-15T01:29:44.677Z,19.30
2018-09-15T01:32:12.884Z,18.90
2018-09-15T01:34:41.025Z,17.53
2018-09-15T01:37:09.283Z,16.10
2018-09-15T01:39:37.480Z,17.00
2018-09-15T01:42:05.702Z,17.70
2018-09-15T01:44:33.835Z,14.97
2018-09-15T01:47:01.994Z,15.83
2018-09-15T01:49:30.137Z,18.43
2018-09-15T01:51:58.334Z,14.47
2018-09-15T01:54:26.418Z,15.03
2018-09-15T01:56:54.544Z,15.37
2018-09-15T01:59:22.729Z,16.27
2018-09-15T02:01:50.843Z,13.77
2018-09-15T02:04:18.980Z,19.37
2018-09-15T02:06:47.173Z,17.10
2018-09-15T02:09:15.504Z,14.43
2018-09-15T02:11:44.376Z,15.43
2018-09-15T02:14:12.589Z,20.40
2018-09-15T02:16:40.804Z,20.97
2018-09-15T02:19:08.932Z,19.90
2018-09-15T02:21:37.085Z,19.47
2018-09-15T02:24:05.276Z,20.43
2018-09-15T02:26:33.480Z,24.10
2018-09-15T02:29:08.209Z,15.93
2018-09-15T02:31:36.383Z,18.90
2018-09-15T02:34:04.511Z,20.03
2018-09-15T02:36:32.792Z,19.83
2018-09-15T02:39:00.978Z,22.03
2018-09-15T02:41:29.256Z,23.10
2018-09-15T02:43:57.435Z,23.10
2018-09-15T02:46:25.608Z,21.43
2018-09-15T02:48:53.767Z,21.10
2018-09-15T02:51:22.019Z,20.97
2018-09-15T02:53:50.199Z,18.57
2018-09-15T02:56:18.476Z,21.07
2018-09-15T02:58:47.119Z,19.17
2018-09-15T03:01:15.293Z,19.23
2018-09-15T03:03:43.563Z,24.07
2018-09-15T03:06:11.786Z,21.77
2018-09-15T03:08:39.997Z,20.77
2018-09-15T03:11:08.193Z,20.53
2018-09-15T03:13:36.364Z,20.13
2018-09-15T03:16:04.703Z,20.93
2018-09-15T03:18:32.933Z,20.87
2018-09-15T03:21:01.221Z,23.37
2018-09-15T03:23:29.547Z,24.07
2018-09-15T03:25:57.828Z,26.93
2018-09-15T03:28:26.038Z,25.33
2018-09-15T03:30:54.299Z,29.00
2018-09-15T03:33:22.555Z,26.27
2018-09-15T03:35:50.753Z,26.47
2018-09-15T03:38:18.990Z,27.70
2018-09-15T03:40:47.196Z,26.23
2018-09-15T03:43:15.531Z,25.60
2018-09-15T03:45:43.799Z,24.43
2018-09-15T03:48:12.069Z,25.93
2018-09-15T03:50:40.252Z,21.77
2018-09-15T03:53:08.444Z,22.87
2018-09-15T03:55:36.690Z,24.40
2018-09-15T03:58:04.932Z,22.70
2018-09-15T04:00:33.213Z,23.33
2018-09-15T04:03:01.459Z,26.00
2018-09-15T04:05:29.661Z,24.93
2018-09-15T04:07:58.037Z,24.10
2018-09-15T04:10:26.236Z,20.77
2018-09-15T04:12:54.515Z,19.57
2018-09-15T04:15:22.730Z,18.97
2018-09-15T04:17:50.961Z,20.23
2018-09-15T04:20:19.151Z,30.43
2018-09-15T04:22:47.384Z,25.57
2018-09-15T04:25:15.598Z,27.03
2018-09-15T04:27:43.829Z,24.07
2018-09-15T04:30:12.033Z,23.43
2018-09-15T04:32:40.249Z,21.87
2018-09-15T04:35:08.593Z,22.60
2018-09-15T04:37:36.822Z,21.60
2018-09-15T04:40:05.055Z,22.20
2018-09-15T04:42:33.269Z,22.90
2018-09-15T04:45:01.452Z,23.67
2018-09-15T04:47:29.677Z,28.30
2018-09-15T04:49:57.898Z,29.87
2018-09-15T04:52:26.140Z,35.27
2018-09-15T04:54:54.723Z,33.37
2018-09-15T04:57:22.929Z,34.73
2018-09-15T04:59:51.109Z,35.57
2018-09-15T05:02:19.428Z,34.00
2018-09-15T05:04:47.635Z,37.47
2018-09-15T05:07:15.852Z,34.13
2018-09-15T05:09:44.039Z,37.60
2018-09-15T05:12:12.196Z,35.67
2018-09-15T05:14:40.307Z,39.07
2018-09-15T05:17:08.541Z,36.73
2018-09-15T05:19:36.757Z,35.47
2018-09-15T05:22:05.135Z,33.60
2018-09-15T05:24:33.292Z,31.20
2018-09-15T05:27:01.494Z,30.43
2018-09-15T05:29:29.713Z,31.53
2018-09-15T05:31:57.940Z,31.50
2018-09-15T05:34:26.175Z,29.50
2018-09-15T05:36:54.455Z,29.93
2018-09-15T05:39:22.725Z,27.13
2018-09-15T05:41:50.908Z,29.63
2018-09-15T05:44:19.131Z,25.87
2018-09-15T05:46:47.322Z,28.67
2018-09-15T05:49:16.029Z,25.63
2018-09-15T05:51:44.280Z,25.23
2018-09-15T05:54:12.504Z,27.23
2018-09-15T05:56:40.678Z,29.10
2018-09-15T05:59:08.805Z,26.33
2018-09-15T06:01:37.089Z,27.80
2018-09-15T06:04:05.218Z,27.00
2018-09-15T06:06:33.370Z,28.30
2018-09-15T06:09:07.313Z,27.43
2018-09-15T06:11:35.482Z,27.70
2018-09-15T06:14:13.447Z,27.23
2018-09-15T06:16:41.597Z,25.37
2018-09-15T06:19:09.840Z,23.40
2018-09-15T06:21:38.084Z,23.03
2018-09-15T06:24:06.241Z,25.93
2018-09-15T06:26:34.705Z,21.30
2018-09-15T06:29:03.199Z,25.13
2018-09-15T06:31:31.413Z,22.47
2018-09-15T06:33:59.572Z,21.33
2018-09-15T06:36:27.717Z,25.67
2018-09-15T06:38:55.953Z,27.40
2018-09-15T06:41:24.135Z,23.60
2018-09-15T06:43:52.275Z,24.93
2018-09-15T06:46:20.536Z,24.67
2018-09-15T06:48:48.676Z,32.77
2018-09-15T06:51:16.845Z,26.27
2018-09-15T06:53:45.107Z,27.63
2018-09-15T06:56:13.255Z,26.33
2018-09-15T06:58:41.524Z,24.80
2018-09-15T07:01:09.739Z,23.97
2018-09-15T07:03:38.004Z,23.87
2018-09-15T07:06:06.166Z,21.10
2018-09-15T07:08:34.502Z,25.37
2018-09-15T07:11:02.857Z,24.60
2018-09-15T07:13:31.092Z,26.23
2018-09-15T07:15:59.278Z,22.20
2018-09-15T07:18:27.503Z,23.50
2018-09-15T07:20:55.812Z,23.33
2018-09-15T07:23:24.035Z,25.53
2018-09-15T07:25:52.258Z,25.30
2018-09-15T07:28:20.506Z,29.40
2018-09-15T07:30:48.737Z,25.03
2018-09-15T07:33:16.972Z,21.50
2018-09-15T07:35:45.929Z,23.97
2018-09-15T07:38:14.122Z,22.30
2018-09-15T07:40:42.390Z,20.90
2018-09-15T07:43:10.563Z,23.80
2018-09-15T07:45:38.790Z,21.57
2018-09-15T07:48:07.212Z,22.93
2018-09-15T07:50:35.411Z,22.20
2018-09-15T07:53:03.796Z,21.77
2018-09-15T07:55:32.005Z,21.23
2018-09-15T07:58:00.462Z,19.03
2018-09-15T08:00:28.454Z,19.63
2018-09-15T08:02:56.652Z,18.57
2018-09-15T08:05:24.865Z,19.10
2018-09-15T08:07:53.134Z,20.83
2018-09-15T08:10:21.404Z,19.43
2018-09-15T08:12:49.663Z,16.43
2018-09-15T08:15:17.961Z,16.13
2018-09-15T08:17:46.115Z,18.67
2018-09-15T08:20:14.309Z,15.60
2018-09-15T08:22:42.603Z,14.87
2018-09-15T08:25:10.755Z,15.27
2018-09-15T08:27:38.971Z,13.63
2018-09-15T08:30:07.160Z,13.77
2018-09-15T08:32:35.480Z,15.07
2018-09-15T08:35:03.766Z,13.80
2018-09-15T08:37:32.031Z,11.07
2018-09-15T08:40:00.168Z,9.00
2018-09-15T08:42:28.399Z,8.00
2018-09-15T08:44:56.539Z,8.17
2018-09-15T08:47:24.807Z,9.67
2018-09-15T08:49:52.905Z,8.87
2018-09-15T08:52:21.110Z,10.60
2018-09-15T08:54:49.469Z,10.73
2018-09-15T08:57:17.653Z,9.93
2018-09-15T08:59:45.833Z,13.77
2018-09-15T09:02:14.913Z,11.63
2018-09-15T09:04:44.315Z,13.87
2018-09-15T09:07:12.553Z,12.27
2018-09-15T09:09:40.835Z,14.07
2018-09-15T09:12:09.098Z,11.97
2018-09-15T09:14:37.442Z,10.50
2018-09-15T09:17:05.700Z,10.67
2018-09-15T09:19:33.933Z,13.27
2018-09-15T09:22:02.087Z,11.60
2018-09-15T09:24:37.719Z,10.73
2018-09-15T09:27:12.418Z,11.40
2018-09-15T09:29:40.943Z,11.30
2018-09-15T09:32:09.166Z,9.03
2018-09-15T09:34:37.730Z,11.13
2018-09-15T09:37:06.019Z,9.73
2018-09-15T09:39:34.289Z,7.83
2018-09-15T09:42:02.865Z,9.57
2018-09-15T09:44:31.009Z,8.50
2018-09-15T09:46:59.202Z,7.87
2018-09-15T09:49:27.408Z,7.53
2018-09-15T09:51:55.602Z,7.87
2018-09-15T09:54:23.779Z,9.63
2018-09-15T09:56:51.988Z,7.00
2018-09-15T09:59:20.208Z,8.63
2018-09-15T10:01:53.791Z,6.80
2018-09-15T10:04:21.965Z,7.97
2018-09-15T10:06:50.067Z,8.27
2018-09-15T10:09:18.477Z,9.10
2018-09-15T10:11:46.787Z,8.70
2018-09-15T10:14:14.980Z,9.07
2018-09-15T10:16:43.146Z,10.43
2018-09-15T10:19:11.318Z,7.67
2018-09-15T10:21:39.559Z,7.17
2018-09-15T10:24:07.749Z,6.73
2018-09-15T10:26:35.919Z,8.70
2018-09-15T10:29:04.146Z,10.00
2018-09-15T10:31:32.361Z,8.33
2018-09-15T10:34:00.481Z,8.30
2018-09-15T10:36:28.684Z,8.47
2018-09-15T10:38:56.855Z,7.67
2018-09-15T10:41:25.008Z,6.37
2018-09-15T10:43:53.208Z,7.80
2018-09-15T10:46:21.735Z,6.83
2018-09-15T10:48:50.023Z,7.57
2018-09-15T10:51:18.200Z,8.70
2018-09-15T10:53:46.348Z,5.83
2018-09-15T10:56:14.579Z,7.60
2018-09-15T10:58:42.815Z,6.80
2018-09-15T11:01:10.980Z,9.77
2018-09-15T11:03:39.171Z,8.53
2018-09-15T11:06:07.312Z,7.47
2018-09-15T11:08:35.536Z,10.67
2018-09-15T11:11:03.762Z,6.70
2018-09-15T11:13:31.951Z,6.37
2018-09-15T11:16:00.104Z,4.47
2018-09-15T11:18:28.203Z,7.90
2018-09-15T11:20:56.792Z,5.13
2018-09-15T11:23:24.969Z,5.70
2018-09-15T11:25:53.192Z,6.47
2018-09-15T11:28:21.305Z,4.53
2018-09-15T11:30:49.562Z,4.30
2018-09-15T11:33:17.880Z,5.10
2018-09-15T11:35:46.247Z,5.93
2018-09-15T11:38:14.417Z,4.77
2018-09-15T11:40:42.972Z,6.20
2018-09-15T11:43:12.041Z,5.93
2018-09-15T11:45:40.560Z,5.70
2018-09-15T11:48:09.134Z,4.53
2018-09-15T11:50:37.522Z,5.60
2018-09-15T11:53:06.268Z,5.30
2018-09-15T11:55:35.159Z,4.33
2018-09-15T11:58:03.844Z,4.73
2018-09-15T12:00:35.654Z,4.20
2018-09-15T12:03:04.162Z,5.53
2018-09-15T12:05:32.792Z,4.63
2018-09-15T12:08:01.383Z,6.30
2018-09-15T12:10:30.281Z,5.07
2018-09-15T12:12:58.998Z,5.97
2018-09-15T12:15:27.716Z,5.40
2018-09-15T12:17:56.365Z,5.53
2018-09-15T12:20:25.106Z,5.93
2018-09-15T12:22:53.421Z,7.90
2018-09-15T12:25:22.115Z,4.63
2018-09-15T12:27:50.889Z,4.57
2018-09-15T12:30:19.226Z,6.20
2018-09-15T12:32:47.398Z,6.43
2018-09-15T12:35:15.738Z,5.47
2018-09-15T12:37:43.928Z,3.73
2018-09-15T12:40:12.213Z,6.43
2018-09-15T12:42:40.590Z,6.53
2018-09-15T12:45:08.940Z,5.70
2018-09-15T12:47:37.339Z,4.37
2018-09-15T12:50:05.547Z,4.10
2018-09-15T12:52:33.726Z,5.33
2018-09-15T12:55:01.982Z,4.93
2018-09-15T12:57:30.112Z,5.57
2018-09-15T12:59:58.695Z,6.47
2018-09-15T13:02:26.917Z,8.67
2018-09-15T13:04:55.197Z,4.47
2018-09-15T13:07:23.310Z,4.63
2018-09-15T13:09:51.486Z,6.77
2018-09-15T13:12:19.658Z,5.33
2018-09-15T13:14:47.788Z,5.23
2018-09-15T13:17:15.976Z,5.53
2018-09-15T13:19:44.153Z,4.40
2018-09-15T13:22:12.348Z,4.63
2018-09-15T13:24:40.541Z,5.63
2018-09-15T13:27:09.372Z,6.70
2018-09-15T13:29:37.877Z,6.03
2018-09-15T13:32:06.221Z,4.30
2018-09-15T13:34:34.474Z,6.27
2018-09-15T13:37:02.721Z,4.93
2018-09-15T13:39:30.979Z,4.60
2018-09-15T13:41:59.202Z,4.60
2018-09-15T13:44:27.964Z,4.73
2018-09-15T13:46:56.232Z,4.43
2018-09-15T13:49:24.509Z,5.40
2018-09-15T13:51:52.720Z,6.13
2018-09-15T13:54:20.922Z,4.03
2018-09-15T13:56:49.130Z,10.43
2018-09-15T13:59:17.561Z,4.37
2018-09-15T14:01:46.089Z,6.13
2018-09-15T14:04:14.400Z,4.43
2018-09-15T14:06:42.877Z,5.00
2018-09-15T14:09:11.950Z,3.80
2018-09-15T14:11:40.562Z,3.63
2018-09-15T14:14:09.327Z,3.33
2018-09-15T14:16:38.139Z,4.80
2018-09-15T14:19:07.196Z,3.83
2018-09-15T14:21:35.825Z,4.67
2018-09-15T14:24:04.385Z,4.97
2018-09-15T14:26:32.625Z,5.23
2018-09-15T14:29:00.841Z,3.83
2018-09-15T14:31:28.997Z,6.03
2018-09-15T14:33:57.119Z,4.70
2018-09-15T14:36:25.246Z,4.90
2018-09-15T14:38:53.382Z,4.70
2018-09-15T14:41:21.621Z,5.90
2018-09-15T14:43:49.753Z,4.33
2018-09-15T14:46:17.970Z,6.33
2018-09-15T14:48:46.116Z,6.43
2018-09-15T14:51:14.281Z,5.07
2018-09-15T14:53:42.457Z,3.77
2018-09-15T14:56:10.640Z,4.17
2018-09-15T14:58:38.762Z,4.83
2018-09-15T15:01:06.902Z,3.40
2018-09-15T15:03:35.038Z,3.60
2018-09-15T15:06:03.229Z,5.27
2018-09-15T15:08:31.374Z,3.40
2018-09-15T15:10:59.498Z,5.70
2018-09-15T15:13:27.667Z,3.33
2018-09-15T15:15:56.145Z,3.17
2018-09-15T15:18:24.353Z,8.07
2018-09-15T15:20:52.685Z,3.40
2018-09-15T15:23:20.948Z,6.53
2018-09-15T15:25:50.080Z,4.33
2018-09-15T15:28:18.160Z,3.83
2018-09-15T15:30:46.322Z,3.40
2018-09-15T15:33:14.484Z,4.27
2018-09-15T15:35:43.427Z,4.63
2018-09-15T15:38:11.612Z,3.90
2018-09-15T15:40:39.741Z,4.23
2018-09-15T15:43:07.882Z,4.80
2018-09-15T15:45:36.043Z,3.27
2018-09-15T15:48:04.218Z,3.90
2018-09-15T15:50:32.401Z,4.33
2018-09-15T15:53:00.569Z,6.17
2018-09-15T15:55:35.022Z,5.93
2018-09-15T15:58:03.098Z,3.87
2018-09-15T16:00:31.222Z,4.03
2018-09-15T16:02:59.371Z,4.67
2018-09-15T16:05:27.469Z,3.87
2018-09-15T16:07:55.662Z,4.10
2018-09-15T16:10:23.757Z,2.90
2018-09-15T16:12:51.941Z,5.10
2018-09-15T16:15:20.078Z,2.83
2018-09-15T16:17:48.249Z,5.27
2018-09-15T16:20:16.435Z,3.37
2018-09-15T16:22:44.643Z,4.73
2018-09-15T16:25:12.803Z,3.70
2018-09-15T16:27:41.035Z,4.87
2018-09-15T16:30:09.947Z,5.73
2018-09-15T16:32:38.075Z,5.40
2018-09-15T16:35:06.233Z,3.77
2018-09-15T16:37:34.395Z,5.93
2018-09-15T16:40:02.591Z,3.43
2018-09-15T16:42:30.713Z,2.77
2018-09-15T16:44:58.910Z,3.80
2018-09-15T16:47:27.097Z,4.10
2018-09-15T16:49:55.201Z,4.53
2018-09-15T16:52:23.387Z,4.73
2018-09-15T16:54:51.536Z,3.27
2018-09-15T16:57:19.950Z,4.33
2018-09-15T16:59:48.407Z,5.90
2018-09-15T17:02:16.533Z,4.50
2018-09-15T17:04:44.711Z,4.53
2018-09-15T17:07:12.860Z,3.40
2018-09-15T17:09:41.185Z,5.30
2018-09-15T17:12:09.479Z,4.70
2018-09-15T17:14:37.684Z,3.83
2018-09-15T17:17:05.835Z,3.93
2018-09-15T17:19:34.899Z,3.30
2018-09-15T17:22:03.045Z,3.63
2018-09-15T17:24:31.301Z,5.80
2018-09-15T17:26:59.828Z,3.83
2018-09-15T17:29:28.226Z,4.57
2018-09-15T17:31:56.780Z,3.13
2018-09-15T17:34:25.210Z,3.87
2018-09-15T17:36:53.707Z,3.53
2018-09-15T17:39:22.848Z,3.77
2018-09-15T17:41:50.986Z,3.30
2018-09-15T17:44:19.125Z,3.00
2018-09-15T17:46:47.308Z,3.70
2018-09-15T17:49:15.940Z,3.70
2018-09-15T17:51:44.725Z,3.67
2018-09-15T17:54:12.903Z,3.67
2018-09-15T17:56:41.063Z,4.00
2018-09-15T17:59:09.224Z,2.27
2018-09-15T18:01:37.317Z,3.63
2018-09-15T18:04:05.485Z,2.93
2018-09-15T18:06:33.644Z,2.93
2018-09-15T18:09:01.814Z,4.20
2018-09-15T18:11:30.028Z,3.77
2018-09-15T18:13:58.193Z,2.87
2018-09-15T18:16:26.288Z,4.07
2018-09-15T18:18:54.430Z,3.20
2018-09-15T18:21:22.669Z,3.63
2018-09-15T18:23:50.769Z,3.30
2018-09-15T18:26:19.482Z,4.07
2018-09-15T18:28:48.034Z,2.63
2018-09-15T18:31:16.192Z,5.03
2018-09-15T18:33:44.388Z,3.77
2018-09-15T18:36:12.705Z,3.27
2018-09-15T18:38:40.763Z,4.77
2018-09-15T18:41:08.867Z,5.37
2018-09-15T18:43:36.989Z,5.43
2018-09-15T18:46:06.006Z,4.20
2018-09-15T18:48:34.161Z,7.13
2018-09-15T18:51:02.306Z,6.77
2018-09-15T18:53:30.450Z,4.70
2018-09-15T18:55:59.389Z,5.30
2018-09-15T18:58:28.482Z,6.57
2018-09-15T19:00:57.265Z,6.37
2018-09-15T19:03:25.399Z,5.90
2018-09-15T19:05:53.599Z,5.53
2018-09-15T19:08:21.692Z,6.30
2018-09-15T19:10:49.795Z,4.43
2018-09-15T19:13:18.268Z,4.80
2018-09-15T19:15:46.401Z,6.53
2018-09-15T19:18:14.623Z,6.80
2018-09-15T19:20:42.829Z,3.83
2018-09-15T19:23:11.010Z,3.17
2018-09-15T19:25:39.924Z,3.97
2018-09-15T19:28:08.134Z,4.13
2018-09-15T19:30:36.354Z,5.40
2018-09-15T19:33:04.488Z,3.00
2018-09-15T19:35:32.613Z,3.77
2018-09-15T19:38:01.709Z,3.57
2018-09-15T19:40:29.893Z,2.90
2018-09-15T19:42:58.063Z,2.97
2018-09-15T19:45:27.534Z,2.53
2018-09-15T19:47:55.718Z,3.87
2018-09-15T19:50:24.217Z,2.77
2018-09-15T19:52:52.995Z,2.63
2018-09-15T19:55:21.138Z,3.50
2018-09-15T19:57:49.341Z,2.63
2018-09-15T20:00:17.547Z,3.57
2018-09-15T20:02:45.757Z,4.70
2018-09-15T20:05:14.328Z,6.57
2018-09-15T20:07:42.473Z,5.37
2018-09-15T20:10:10.616Z,4.50
2018-09-15T20:12:38.838Z,4.50
2018-09-15T20:15:11.490Z,3.03
2018-09-15T20:17:39.070Z,4.93
2018-09-15T20:20:06.669Z,3.33
2018-09-15T20:22:34.856Z,4.90
2018-09-15T20:25:03.582Z,4.37
2018-09-15T20:27:31.738Z,3.70
2018-09-15T20:29:59.851Z,4.57
2018-09-15T20:32:28.613Z,5.20
2018-09-15T20:34:56.728Z,4.70
2018-09-15T20:37:24.911Z,3.83
2018-09-15T20:39:54.009Z,3.87
2018-09-15T20:42:22.227Z,3.77
2018-09-15T20:44:50.797Z,5.20
2018-09-15T20:47:19.019Z,4.53
2018-09-15T20:49:47.227Z,4.13
2018-09-15T20:52:15.390Z,3.77
2018-09-15T20:54:43.679Z,3.77
2018-09-15T20:57:11.814Z,3.77
2018-09-15T20:59:39.936Z,5.80
2018-09-15T21:02:10.067Z,3.87
2018-09-15T21:04:38.523Z,5.13
2018-09-15T21:07:06.789Z,3.80
2018-09-15T21:09:35.124Z,7.00
2018-09-15T21:12:03.475Z,4.97
2018-09-15T21:14:32.163Z,7.73
2018-09-15T21:17:00.401Z,4.03
2018-09-15T21:19:28.551Z,5.30
2018-09-15T21:21:58.499Z,5.03
2018-09-15T21:24:26.757Z,4.03
2018-09-15T21:26:54.925Z,5.10
2018-09-15T21:29:23.107Z,3.90
2018-09-15T21:31:51.281Z,6.43
2018-09-15T21:34:19.741Z,4.33
2018-09-15T21:36:47.825Z,6.10
2018-09-15T21:39:15.963Z,4.30
2018-09-15T21:41:44.136Z,4.37
2018-09-15T21:44:12.291Z,3.77
2018-09-15T21:46:40.514Z,4.13
2018-09-15T21:49:08.691Z,4.17
2018-09-15T21:51:37.460Z,4.03
2018-09-15T21:54:05.930Z,4.07
2018-09-15T21:56:34.217Z,4.63
2018-09-15T21:59:02.370Z,6.23
2018-09-15T22:01:30.599Z,5.40
2018-09-15T22:04:04.163Z,5.53
2018-09-15T22:06:32.289Z,4.77
2018-09-15T22:09:03.071Z,4.60
2018-09-15T22:11:31.259Z,6.07
2018-09-15T22:14:00.737Z,4.93
2018-09-15T22:16:29.015Z,5.00
2018-09-15T22:18:57.147Z,4.33
2018-09-15T22:21:25.317Z,5.30
2018-09-15T22:23:53.495Z,5.43
2018-09-15T22:26:21.722Z,6.57
2018-09-15T22:28:49.902Z,6.13
2018-09-15T22:31:18.047Z,6.43
2018-09-15T22:33:46.178Z,5.97
2018-09-15T22:36:14.342Z,6.03
2018-09-15T22:38:42.537Z,5.80
2018-09-15T22:41:10.741Z,6.13
2018-09-15T22:43:38.862Z,5.60
2018-09-15T22:46:07.290Z,6.67
2018-09-15T22:48:35.512Z,6.47
2018-09-15T22:51:03.679Z,6.90
2018-09-15T22:53:31.795Z,7.10
2018-09-15T22:55:59.945Z,6.97
2018-09-15T22:58:28.053Z,8.00
2018-09-15T23:00:56.191Z,7.23
2018-09-15T23:03:24.860Z,6.43
2018-09-15T23:05:53.026Z,6.17
2018-09-15T23:08:21.141Z,7.70
2018-09-15T23:10:49.284Z,5.37
2018-09-15T23:13:17.469Z,6.00
2018-09-15T23:15:45.665Z,6.43
2018-09-15T23:18:13.750Z,7.07
2018-09-15T23:20:42.455Z,5.73
2018-09-15T23:23:10.601Z,6.33
2018-09-15T23:25:38.719Z,6.93
2018-09-15T23:28:06.870Z,6.10
2018-09-15T23:30:34.991Z,5.90
2018-09-15T23:33:03.281Z,6.67
2018-09-15T23:35:31.391Z,6.43
2018-09-15T23:37:59.530Z,5.77
2018-09-15T23:40:27.694Z,5.93
2018-09-15T23:42:55.877Z,6.13
2018-09-15T23:45:24.050Z,6.73
2018-09-15T23:47:52.183Z,6.03
2018-09-15T23:50:20.355Z,8.33
2018-09-15T23:52:48.995Z,7.47
2018-09-15T23:55:17.967Z,6.20
2018-09-15T23:57:46.213Z,5.87
